Time;durP1;ratioP1;P1;durP2;ratioP2;P2;SDS_P1;SDS_P2;PMS_P1;PMS_P2;Temp;Humidity;BMP_temperature;BMP_pressure;BME280_temperature;BME280_humidity;BME280_pressure;Samples;Min_cycle;Max_cycle;Signal;HPM_P1;HPM_P2
2021/09/17 00:01:52;;;;;;;37.08;32.05;;;14.30;85.40;;;;;;4984940;28;20065;-72
2021/09/17 00:04:18;;;;;;;34.92;30.70;;;14.20;85.40;;;;;;4983045;28;20398;-75
2021/09/17 00:06:43;;;;;;;35.60;31.08;;;14.20;85.50;;;;;;4986746;28;21426;-73
2021/09/17 00:09:09;;;;;;;34.95;31.13;;;14.20;85.70;;;;;;4983131;28;20038;-74
2021/09/17 00:11:35;;;;;;;36.20;32.30;;;14.20;85.70;;;;;;4977321;28;20034;-73
2021/09/17 00:14:01;;;;;;;35.40;31.60;;;14.10;85.70;;;;;;4983356;28;20046;-74
2021/09/17 00:16:27;;;;;;;37.85;33.70;;;14.10;85.70;;;;;;4990432;28;20117;-73
2021/09/17 00:18:53;;;;;;;37.72;33.35;;;14.10;85.80;;;;;;4981453;28;20489;-73
2021/09/17 00:21:18;;;;;;;39.30;33.88;;;14.10;85.90;;;;;;4981771;28;20034;-73
2021/09/17 00:23:44;;;;;;;41.38;35.33;;;14.10;86.00;;;;;;4987409;28;20516;-72
2021/09/17 00:26:10;;;;;;;40.33;35.38;;;14.10;86.20;;;;;;4985511;28;20193;-74
2021/09/17 00:28:36;;;;;;;41.53;37.05;;;14.10;86.30;;;;;;4983553;28;20026;-73
2021/09/17 00:31:03;;;;;;;39.90;35.60;;;14.10;86.40;;;;;;4981636;28;20100;-73
2021/09/17 00:33:30;;;;;;;43.80;36.97;;;14.10;86.40;;;;;;4990939;28;20041;-73
2021/09/17 00:35:56;;;;;;;38.88;34.55;;;14.10;86.40;;;;;;4984407;28;20034;-73
2021/09/17 00:38:21;;;;;;;39.95;35.67;;;14.10;86.40;;;;;;4988453;28;20026;-73
2021/09/17 00:40:47;;;;;;;38.53;34.30;;;14.10;86.50;;;;;;4984744;28;20026;-76
2021/09/17 00:43:13;;;;;;;42.70;37.03;;;14.00;86.50;;;;;;4988611;28;20041;-73
2021/09/17 00:45:39;;;;;;;37.10;33.10;;;14.00;86.60;;;;;;4983531;28;20097;-72
2021/09/17 00:48:05;;;;;;;38.60;34.38;;;14.00;86.50;;;;;;4983008;28;20050;-74
2021/09/17 00:50:31;;;;;;;38.63;34.42;;;13.90;86.40;;;;;;4985823;28;20470;-73
2021/09/17 00:52:58;;;;;;;38.20;32.05;;;13.90;86.40;;;;;;4986576;28;20117;-73
2021/09/17 00:55:24;;;;;;;37.90;33.80;;;13.80;86.30;;;;;;4985567;28;20050;-73
2021/09/17 00:57:50;;;;;;;36.95;31.83;;;13.80;86.30;;;;;;4987778;28;20049;-78
2021/09/17 01:00:16;;;;;;;35.30;31.65;;;13.70;86.30;;;;;;4983764;28;20039;-74
2021/09/17 01:02:42;;;;;;;39.20;33.53;;;13.70;86.30;;;;;;4983926;28;20034;-76
2021/09/17 01:05:10;;;;;;;34.78;30.95;;;13.70;86.30;;;;;;4981468;28;20057;-73
2021/09/17 01:07:36;;;;;;;36.03;32.13;;;13.70;86.30;;;;;;4984313;28;20142;-73
2021/09/17 01:10:04;;;;;;;36.15;31.10;;;13.60;86.00;;;;;;4986848;28;20085;-73
2021/09/17 01:12:30;;;;;;;37.42;32.13;;;13.60;85.80;;;;;;4985483;28;20494;-75
2021/09/17 01:14:57;;;;;;;38.08;32.33;;;13.60;85.90;;;;;;4979542;28;20035;-73
2021/09/17 01:17:31;;;;;;;36.53;32.50;;;13.60;86.00;;;;;;4982231;28;20065;-73
2021/09/17 01:19:57;;;;;;;37.88;32.95;;;13.60;86.20;;;;;;4985252;28;20470;-72
2021/09/17 01:22:22;;;;;;;38.97;33.67;;;13.50;86.20;;;;;;4980882;28;20039;-73
2021/09/17 01:24:48;;;;;;;42.42;36.83;;;13.50;86.40;;;;;;4983427;28;21080;-73
2021/09/17 01:27:15;;;;;;;40.90;35.22;;;13.50;86.40;;;;;;4985678;28;20375;-74
2021/09/17 01:29:40;;;;;;;39.65;34.28;;;13.50;86.40;;;;;;4983167;28;20035;-72
2021/09/17 01:32:06;;;;;;;39.90;33.83;;;13.50;86.40;;;;;;4985282;28;20031;-73
2021/09/17 01:34:33;;;;;;;39.15;34.50;;;13.50;86.50;;;;;;4985645;28;20034;-72
2021/09/17 01:36:58;;;;;;;40.50;34.92;;;13.50;86.50;;;;;;4985380;28;20054;-74
2021/09/17 01:39:25;;;;;;;41.05;36.03;;;13.50;86.40;;;;;;4979168;28;20126;-73
2021/09/17 01:41:52;;;;;;;39.85;35.55;;;13.40;86.40;;;;;;4984012;28;20505;-74
2021/09/17 01:44:18;;;;;;;42.47;34.75;;;13.40;86.30;;;;;;4987149;28;20030;-73
2021/09/17 01:46:44;;;;;;;42.22;35.45;;;13.40;86.30;;;;;;4982874;28;20061;-79
2021/09/17 01:49:10;;;;;;;42.35;36.35;;;13.40;86.40;;;;;;4998078;28;20415;-74
2021/09/17 01:51:36;;;;;;;46.42;39.67;;;13.30;86.50;;;;;;5011279;28;20033;-73
2021/09/17 01:54:04;;;;;;;44.33;37.80;;;13.30;86.60;;;;;;5007111;28;20406;-74
2021/09/17 01:56:30;;;;;;;49.60;41.88;;;13.30;86.70;;;;;;5005171;28;20037;-73
2021/09/17 01:58:56;;;;;;;51.25;42.10;;;13.20;86.80;;;;;;5004182;28;20045;-72
2021/09/17 02:01:21;;;;;;;49.65;42.28;;;13.30;86.90;;;;;;5009416;28;20034;-73
2021/09/17 02:03:47;;;;;;;52.47;42.08;;;13.30;87.00;;;;;;5011199;28;20382;-74
2021/09/17 02:06:21;;;;;;;54.38;46.40;;;13.20;87.10;;;;;;5006652;28;20061;-76
2021/09/17 02:08:47;;;;;;;51.70;43.53;;;13.20;87.10;;;;;;5001267;28;20157;-78
2021/09/17 02:11:13;;;;;;;59.25;46.03;;;13.20;87.20;;;;;;5007659;28;20042;-73
2021/09/17 02:13:39;;;;;;;60.67;49.05;;;13.20;87.30;;;;;;5004960;28;20060;-76
2021/09/17 02:16:04;;;;;;;60.78;47.72;;;13.20;87.50;;;;;;5004470;28;20045;-72
2021/09/17 02:18:30;;;;;;;62.47;50.13;;;13.20;87.70;;;;;;5010657;28;20059;-72
2021/09/17 02:20:56;;;;;;;63.05;50.72;;;13.30;87.80;;;;;;5007898;28;20126;-75
2021/09/17 02:23:22;;;;;;;61.78;48.72;;;13.30;87.90;;;;;;5005474;28;20042;-77
2021/09/17 02:25:48;;;;;;;58.65;48.10;;;13.30;87.90;;;;;;5009272;28;20084;-74
2021/09/17 02:28:14;;;;;;;60.95;49.03;;;13.30;88.00;;;;;;5006103;28;20065;-72
2021/09/17 02:30:39;;;;;;;66.80;52.08;;;13.30;88.00;;;;;;5005058;28;20042;-73
2021/09/17 02:33:05;;;;;;;66.07;51.90;;;13.30;88.10;;;;;;5003563;28;20474;-73
2021/09/17 02:35:31;;;;;;;62.88;48.38;;;13.20;88.20;;;;;;5004112;28;20124;-74
2021/09/17 02:37:57;;;;;;;65.97;50.60;;;13.10;88.20;;;;;;4979998;28;20441;-73
2021/09/17 02:40:23;;;;;;;67.25;49.90;;;13.20;88.30;;;;;;4987203;28;20394;-72
2021/09/17 02:42:49;;;;;;;62.47;48.75;;;13.20;88.30;;;;;;4977857;28;20390;-74
2021/09/17 02:45:15;;;;;;;60.58;47.30;;;13.20;88.10;;;;;;4981839;28;20030;-74
2021/09/17 02:47:42;;;;;;;64.85;50.03;;;13.10;88.10;;;;;;4996495;28;20152;-76
2021/09/17 02:50:09;;;;;;;62.78;49.45;;;13.10;88.10;;;;;;4987562;28;20105;-74
2021/09/17 02:52:35;;;;;;;68.95;50.95;;;13.10;88.30;;;;;;4980820;28;20037;-72
2021/09/17 02:55:02;;;;;;;61.72;46.65;;;13.10;88.30;;;;;;4980790;28;20037;-73
2021/09/17 02:57:28;;;;;;;64.65;48.58;;;13.10;88.40;;;;;;4980239;28;20066;-74
2021/09/17 02:59:54;;;;;;;64.90;48.97;;;13.10;88.40;;;;;;4982621;28;20073;-73
2021/09/17 03:02:19;;;;;;;68.00;50.72;;;13.00;88.50;;;;;;4984519;28;20042;-74
2021/09/17 03:04:45;;;;;;;70.32;53.10;;;13.10;88.50;;;;;;4985001;28;20027;-72
2021/09/17 03:07:11;;;;;;;68.20;52.13;;;13.10;88.60;;;;;;4980473;28;20061;-73
2021/09/17 03:09:37;;;;;;;71.75;52.72;;;13.00;88.70;;;;;;4983157;28;20027;-73
2021/09/17 03:12:04;;;;;;;75.00;53.38;;;13.00;88.80;;;;;;4984685;28;20042;-74
2021/09/17 03:14:30;;;;;;;72.72;53.10;;;13.00;88.80;;;;;;4981884;28;20045;-76
2021/09/17 03:16:55;;;;;;;76.25;53.97;;;13.00;88.80;;;;;;4980189;28;20046;-74
2021/09/17 03:19:21;;;;;;;73.40;52.30;;;13.00;88.80;;;;;;4978259;28;20043;-74
2021/09/17 03:21:47;;;;;;;73.43;53.85;;;13.00;88.80;;;;;;4983118;28;20130;-74
2021/09/17 03:24:13;;;;;;;78.07;54.95;;;13.00;89.00;;;;;;4984613;28;20121;-74
2021/09/17 03:26:39;;;;;;;77.15;53.95;;;13.10;89.10;;;;;;4983212;28;20442;-74
2021/09/17 03:29:05;;;;;;;77.82;55.67;;;13.00;89.20;;;;;;4983429;28;20065;-78
2021/09/17 03:31:31;;;;;;;81.43;55.65;;;13.00;89.30;;;;;;5005005;28;20018;-75
2021/09/17 03:33:58;;;;;;;78.07;55.90;;;13.00;89.20;;;;;;5012115;28;20057;-75
2021/09/17 03:36:26;;;;;;;81.63;56.63;;;13.00;89.30;;;;;;4996776;28;20050;-73
2021/09/17 03:38:53;;;;;;;74.60;54.50;;;13.00;89.40;;;;;;4982173;28;20046;-73
2021/09/17 03:41:19;;;;;;;76.68;53.60;;;13.00;89.40;;;;;;4983554;28;20039;-73
2021/09/17 03:43:45;;;;;;;83.70;56.92;;;13.00;89.40;;;;;;4985824;28;20519;-72
2021/09/17 03:46:11;;;;;;;78.90;53.60;;;13.00;89.40;;;;;;4980639;28;20034;-73
2021/09/17 03:48:37;;;;;;;80.43;55.10;;;12.90;89.50;;;;;;4988748;28;20042;-73
2021/09/17 03:51:03;;;;;;;82.25;56.55;;;13.00;89.60;;;;;;4988097;28;20129;-73
2021/09/17 03:53:28;;;;;;;76.03;53.10;;;13.00;89.60;;;;;;4985503;28;20390;-75
2021/09/17 03:55:54;;;;;;;79.88;54.88;;;12.90;89.70;;;;;;4986612;28;20039;-74
2021/09/17 03:58:20;;;;;;;75.50;55.17;;;12.90;89.70;;;;;;4987203;28;20042;-73
2021/09/17 04:00:46;;;;;;;75.60;52.92;;;12.90;89.80;;;;;;4984025;28;20105;-74
2021/09/17 04:03:12;;;;;;;82.47;55.70;;;12.90;89.90;;;;;;4986731;28;20034;-73
2021/09/17 04:05:38;;;;;;;86.93;56.30;;;12.80;89.90;;;;;;4981608;28;20386;-73
2021/09/17 04:08:04;;;;;;;83.50;55.90;;;12.90;89.90;;;;;;4986541;28;20046;-73
2021/09/17 04:10:30;;;;;;;82.18;54.92;;;12.80;89.90;;;;;;4990366;28;20593;-74
2021/09/17 04:12:55;;;;;;;75.95;53.17;;;12.90;90.00;;;;;;4985370;28;20125;-74
2021/09/17 04:15:21;;;;;;;76.32;52.25;;;12.80;90.00;;;;;;4983946;28;20427;-73
2021/09/17 04:17:47;;;;;;;79.85;54.28;;;12.80;90.00;;;;;;4985877;28;20646;-72
2021/09/17 04:20:14;;;;;;;74.85;54.33;;;12.80;90.00;;;;;;4987732;28;20088;-73
2021/09/17 04:22:40;;;;;;;78.68;52.05;;;12.70;90.00;;;;;;4985729;28;20054;-73
2021/09/17 04:25:07;;;;;;;76.15;52.20;;;12.70;90.00;;;;;;4978736;28;20054;-77
2021/09/17 04:27:33;;;;;;;76.82;53.53;;;12.70;90.00;;;;;;4981603;28;20053;-74
2021/09/17 04:29:59;;;;;;;77.22;54.22;;;12.70;90.00;;;;;;4987662;28;20406;-73
2021/09/17 04:32:25;;;;;;;82.30;55.40;;;12.70;90.10;;;;;;4986779;28;20035;-73
2021/09/17 04:34:51;;;;;;;82.60;56.80;;;12.80;90.10;;;;;;4988952;28;20037;-73
2021/09/17 04:37:17;;;;;;;92.25;61.25;;;12.80;90.10;;;;;;4987984;28;20046;-73
2021/09/17 04:39:43;;;;;;;89.78;59.15;;;12.90;90.20;;;;;;4983906;28;20113;-74
2021/09/17 04:42:09;;;;;;;98.60;63.47;;;12.90;90.20;;;;;;4984789;28;20038;-74
2021/09/17 04:44:35;;;;;;;105.22;62.97;;;13.00;90.30;;;;;;4988614;28;20035;-73
2021/09/17 04:47:01;;;;;;;98.32;59.80;;;13.10;90.50;;;;;;4988502;28;20046;-75
2021/09/17 04:49:27;;;;;;;110.22;64.53;;;13.20;90.50;;;;;;4976769;28;20035;-73
2021/09/17 04:51:52;;;;;;;97.82;62.28;;;13.30;90.50;;;;;;4989658;28;20062;-77
2021/09/17 04:54:18;;;;;;;116.90;57.13;;;13.30;90.50;;;;;;4984802;28;20169;-74
2021/09/17 04:56:44;;;;;;;105.82;57.13;;;13.40;90.70;;;;;;4981227;28;20042;-77
2021/09/17 04:59:11;;;;;;;85.25;53.15;;;13.40;90.80;;;;;;4981311;28;20128;-74
2021/09/17 05:01:37;;;;;;;68.53;50.72;;;13.30;91.00;;;;;;4984280;28;20496;-73
2021/09/17 05:04:03;;;;;;;153.15;55.58;;;13.30;91.00;;;;;;4978377;28;20186;-74
2021/09/17 05:06:31;;;;;;;151.50;58.55;;;13.30;91.00;;;;;;4981894;28;20054;-76
2021/09/17 05:09:00;;;;;;;85.60;52.72;;;13.30;91.20;;;;;;4981165;28;20057;-73
2021/09/17 05:11:26;;;;;;;87.82;51.13;;;13.30;91.40;;;;;;5004309;28;20127;-73
2021/09/17 05:13:52;;;;;;;72.45;50.58;;;13.30;91.50;;;;;;5003145;28;20492;-73
2021/09/17 05:16:18;;;;;;;77.50;53.85;;;13.30;91.60;;;;;;5002494;28;20316;-73
2021/09/17 05:18:45;;;;;;;157.75;56.80;;;13.30;91.70;;;;;;5002091;28;20030;-73
2021/09/17 05:21:11;;;;;;;131.45;55.60;;;13.30;91.70;;;;;;5003086;28;20138;-73
2021/09/17 05:23:37;;;;;;;81.28;52.75;;;13.30;91.80;;;;;;5006428;28;20041;-74
2021/09/17 05:26:04;;;;;;;85.90;53.30;;;13.30;91.90;;;;;;5004575;28;20037;-73
2021/09/17 05:28:31;;;;;;;77.07;49.20;;;13.30;92.00;;;;;;5005352;28;20038;-73
2021/09/17 05:30:57;;;;;;;115.38;53.88;;;13.30;92.00;;;;;;5003447;28;20471;-73
2021/09/17 05:33:23;;;;;;;85.82;51.03;;;13.40;92.00;;;;;;5002907;28;20052;-75
2021/09/17 05:35:48;;;;;;;154.25;53.53;;;13.40;92.10;;;;;;5003248;28;20061;-73
2021/09/17 05:38:14;;;;;;;105.75;52.50;;;13.40;92.00;;;;;;5004193;28;20046;-74
2021/09/17 05:40:40;;;;;;;100.00;50.90;;;13.30;92.20;;;;;;4999304;28;20035;-70
2021/09/17 05:43:06;;;;;;;70.55;50.40;;;13.40;92.30;;;;;;5001264;28;20444;-70
2021/09/17 05:45:32;;;;;;;67.97;50.03;;;13.40;92.30;;;;;;4999834;28;20033;-72
2021/09/17 05:47:58;;;;;;;144.07;51.92;;;13.40;92.30;;;;;;5003253;28;20390;-70
2021/09/17 05:50:23;;;;;;;106.97;49.92;;;13.40;92.20;;;;;;4996819;28;20128;-70
2021/09/17 05:52:49;;;;;;;90.38;47.40;;;13.30;92.20;;;;;;5004772;28;20064;-70
2021/09/17 05:55:15;;;;;;;91.60;47.85;;;13.50;92.30;;;;;;5004295;28;20467;-72
2021/09/17 05:57:41;;;;;;;91.75;46.95;;;13.40;92.30;;;;;;5007092;28;20037;-71
2021/09/17 06:00:09;;;;;;;128.55;47.70;;;13.40;92.40;;;;;;5004779;28;20026;-70
2021/09/17 06:02:35;;;;;;;79.72;46.33;;;13.40;92.30;;;;;;5002761;28;20667;-70
2021/09/17 06:05:01;;;;;;;136.90;50.20;;;13.40;92.40;;;;;;5007427;28;20433;-71
2021/09/17 06:07:26;;;;;;;68.65;48.65;;;13.50;92.40;;;;;;5000927;28;20046;-70
2021/09/17 06:09:52;;;;;;;111.20;50.30;;;13.50;92.50;;;;;;5001964;28;20448;-70
2021/09/17 06:12:18;;;;;;;102.28;48.22;;;13.50;92.50;;;;;;4996737;28;20062;-70
2021/09/17 06:14:44;;;;;;;55.70;43.67;;;13.50;92.30;;;;;;5006748;28;20041;-70
2021/09/17 06:17:10;;;;;;;86.75;45.38;;;13.50;92.30;;;;;;5003208;28;20121;-70
2021/09/17 06:19:36;;;;;;;89.32;45.45;;;13.50;92.10;;;;;;5002233;28;20461;-71
2021/09/17 06:22:01;;;;;;;106.70;46.95;;;13.50;92.00;;;;;;4996231;28;20393;-70
2021/09/17 06:24:27;;;;;;;66.18;45.63;;;13.50;91.90;;;;;;5003624;28;20034;-71
2021/09/17 06:26:53;;;;;;;57.05;43.70;;;13.50;91.80;;;;;;5003446;28;20034;-69
2021/09/17 06:29:19;;;;;;;55.40;42.30;;;13.60;91.90;;;;;;5003185;28;20057;-70
2021/09/17 06:31:45;;;;;;;58.22;42.05;;;13.60;92.00;;;;;;5006064;28;20470;-71
2021/09/17 06:34:11;;;;;;;61.97;43.10;;;13.60;91.70;;;;;;4999309;28;20026;-70
2021/09/17 06:36:37;;;;;;;61.75;41.72;;;13.70;91.40;;;;;;5000499;28;20552;-70
2021/09/17 06:39:03;;;;;;;62.60;42.38;;;13.70;91.50;;;;;;5006424;28;20038;-69
2021/09/17 06:41:30;;;;;;;56.25;42.97;;;13.70;91.40;;;;;;5007475;28;20049;-69
2021/09/17 06:43:56;;;;;;;69.75;41.03;;;13.90;91.40;;;;;;5000186;28;20029;-71
2021/09/17 06:46:22;;;;;;;62.08;41.42;;;13.90;91.10;;;;;;5001560;28;21187;-69
2021/09/17 06:48:48;;;;;;;52.20;40.05;;;14.00;91.20;;;;;;4997995;28;20034;-70
2021/09/17 06:51:14;;;;;;;52.92;42.60;;;14.00;91.00;;;;;;5001850;28;20041;-70
2021/09/17 06:53:43;;;;;;;58.28;42.83;;;14.10;91.10;;;;;;5001311;28;20343;-69
2021/09/17 06:56:12;;;;;;;59.90;42.67;;;14.10;91.00;;;;;;4995184;28;20037;-69
2021/09/17 06:58:38;;;;;;;53.83;41.90;;;14.20;90.90;;;;;;4993020;28;20073;-70
2021/09/17 07:01:04;;;;;;;58.03;42.28;;;14.20;90.80;;;;;;5005535;28;20042;-71
2021/09/17 07:03:30;;;;;;;51.58;41.03;;;14.30;90.60;;;;;;5005421;28;20037;-70
2021/09/17 07:05:56;;;;;;;72.28;45.50;;;14.40;90.70;;;;;;5004253;28;20053;-70
2021/09/17 07:08:23;;;;;;;49.42;40.08;;;14.40;90.30;;;;;;5005901;28;20096;-70
2021/09/17 07:10:49;;;;;;;48.97;39.65;;;14.50;90.20;;;;;;5004746;28;20030;-69
2021/09/17 07:13:16;;;;;;;49.28;38.80;;;14.50;90.30;;;;;;5008380;28;20033;-69
2021/09/17 07:15:41;;;;;;;48.13;38.47;;;14.60;90.10;;;;;;5004812;28;20477;-68
2021/09/17 07:18:08;;;;;;;52.78;41.90;;;14.60;90.00;;;;;;5004766;28;20044;-69
2021/09/17 07:20:36;;;;;;;50.40;38.83;;;14.70;89.90;;;;;;5005170;28;20041;-76
2021/09/17 07:23:03;;;;;;;52.92;41.63;;;14.70;89.70;;;;;;5005195;28;20889;-72
2021/09/17 07:25:30;;;;;;;53.70;42.17;;;14.80;89.60;;;;;;5001596;28;20375;-72
2021/09/17 07:27:56;;;;;;;52.85;40.92;;;14.90;89.60;;;;;;5005279;28;20034;-76
2021/09/17 07:30:23;;;;;;;49.63;38.03;;;14.90;89.50;;;;;;5009169;28;20037;-73
2021/09/17 07:32:49;;;;;;;49.65;38.47;;;15.00;89.50;;;;;;5001105;28;20037;-70
2021/09/17 07:35:15;;;;;;;50.70;40.08;;;15.00;89.20;;;;;;4998083;28;20363;-69
2021/09/17 07:37:42;;;;;;;50.80;39.15;;;15.10;89.10;;;;;;4997614;28;20100;-69
2021/09/17 07:40:13;;;;;;;48.35;38.00;;;15.20;89.00;;;;;;5004901;28;20045;-70
2021/09/17 07:42:43;;;;;;;48.63;37.67;;;15.30;88.70;;;;;;5004107;28;20144;-69
2021/09/17 07:45:10;;;;;;;54.63;40.65;;;15.40;88.60;;;;;;5005578;28;20023;-69
2021/09/17 07:47:36;;;;;;;51.30;39.33;;;15.50;88.30;;;;;;5000285;28;20413;-73
2021/09/17 07:50:02;;;;;;;49.22;39.35;;;15.60;88.10;;;;;;5002950;28;20038;-68
2021/09/17 07:52:28;;;;;;;47.15;38.13;;;15.70;87.70;;;;;;5006910;28;20034;-69
2021/09/17 07:54:54;;;;;;;50.30;38.92;;;15.70;87.60;;;;;;5005391;28;20030;-69
2021/09/17 07:57:20;;;;;;;42.22;35.13;;;15.70;87.30;;;;;;5007485;28;20050;-68
2021/09/17 07:59:46;;;;;;;53.03;37.10;;;15.80;87.00;;;;;;5005398;28;20045;-69
2021/09/17 08:02:11;;;;;;;45.75;35.25;;;15.80;86.90;;;;;;5004200;28;20049;-70
2021/09/17 08:04:40;;;;;;;52.75;38.17;;;15.90;87.30;;;;;;5003454;28;20539;-69
2021/09/17 08:07:07;;;;;;;48.55;38.38;;;16.00;86.20;;;;;;4999208;28;20047;-69
2021/09/17 08:09:34;;;;;;;56.38;41.80;;;16.10;86.80;;;;;;5008456;28;20448;-70
2021/09/17 08:12:00;;;;;;;47.72;37.55;;;16.10;86.50;;;;;;4998407;28;20088;-73
2021/09/17 08:14:27;;;;;;;52.90;39.35;;;16.10;86.90;;;;;;4982755;28;20426;-71
2021/09/17 08:16:53;;;;;;;51.25;38.88;;;16.30;86.50;;;;;;4994646;28;20085;-69
2021/09/17 08:19:19;;;;;;;50.85;38.15;;;16.40;86.10;;;;;;5010339;28;20073;-72
2021/09/17 08:21:45;;;;;;;50.60;38.70;;;16.60;85.70;;;;;;5009583;28;20464;-70
2021/09/17 08:24:16;;;;;;;48.58;37.22;;;16.60;85.20;;;;;;4999977;28;20038;-70
2021/09/17 08:26:47;;;;;;;53.10;38.80;;;16.70;84.40;;;;;;5003717;28;20536;-70
2021/09/17 08:29:13;;;;;;;47.75;39.13;;;16.80;84.60;;;;;;5006881;28;20026;-69
2021/09/17 08:31:39;;;;;;;48.53;37.38;;;16.80;84.10;;;;;;5007933;28;20037;-69
2021/09/17 08:34:07;;;;;;;51.33;37.20;;;16.80;83.70;;;;;;5002729;28;20490;-69
2021/09/17 08:36:34;;;;;;;46.58;37.33;;;16.80;84.00;;;;;;5007101;28;20042;-71
2021/09/17 08:39:00;;;;;;;45.88;37.83;;;16.70;85.00;;;;;;5001471;28;20448;-74
2021/09/17 08:41:26;;;;;;;53.75;40.22;;;17.00;84.20;;;;;;5001028;28;20038;-70
2021/09/17 08:43:52;;;;;;;47.63;36.38;;;16.90;83.70;;;;;;5006938;28;20486;-70
2021/09/17 08:46:20;;;;;;;49.83;38.45;;;17.00;84.10;;;;;;5000190;28;20446;-70
2021/09/17 08:48:49;;;;;;;51.00;38.45;;;17.10;83.50;;;;;;5003932;28;20474;-72
2021/09/17 08:51:16;;;;;;;49.63;39.13;;;17.10;84.10;;;;;;5003323;28;20034;-70
2021/09/17 08:53:42;;;;;;;53.28;41.17;;;17.20;83.70;;;;;;5006562;28;20125;-70
2021/09/17 08:56:11;;;;;;;54.33;40.25;;;17.30;83.60;;;;;;5002740;28;20391;-71
2021/09/17 08:58:37;;;;;;;51.55;39.50;;;17.40;83.10;;;;;;5006866;28;20791;-70
2021/09/17 09:01:03;;;;;;;48.92;39.10;;;17.60;83.30;;;;;;5005077;28;20038;-70
2021/09/17 09:03:34;;;;;;;45.95;38.75;;;17.80;82.10;;;;;;5007037;28;20133;-69
2021/09/17 09:06:14;;;;;;;47.47;38.08;;;18.00;82.10;;;;;;5004132;28;20041;-74
2021/09/17 09:08:41;;;;;;;48.65;40.25;;;17.90;80.80;;;;;;5007382;28;20440;-71
2021/09/17 09:11:21;;;;;;;51.60;42.08;;;18.00;80.80;;;;;;5005297;28;20080;-70
2021/09/17 09:14:07;;;;;;;49.53;40.13;;;18.40;80.90;;;;;;5000517;28;20462;-70
2021/09/17 09:16:39;;;;;;;48.33;39.97;;;19.00;78.80;;;;;;4997318;28;20072;-69
2021/09/17 09:19:28;;;;;;;51.33;41.88;;;19.30;76.80;;;;;;4999603;28;20026;-69
2021/09/17 09:22:14;;;;;;;51.17;41.28;;;19.60;75.60;;;;;;5005799;28;20027;-72
2021/09/17 09:24:43;;;;;;;49.70;41.80;;;19.60;75.70;;;;;;4985674;28;20038;-69
2021/09/17 09:27:20;;;;;;;50.88;41.28;;;19.30;76.20;;;;;;4984328;28;20118;-71
2021/09/17 09:29:53;;;;;;;51.70;42.00;;;19.10;75.50;;;;;;4985039;28;20038;-71
2021/09/17 09:32:29;;;;;;;53.20;42.78;;;18.90;77.90;;;;;;4986193;28;20065;-69
2021/09/17 09:35:06;;;;;;;51.33;41.63;;;19.00;77.50;;;;;;4983851;28;20036;-70
2021/09/17 09:37:35;;;;;;;51.95;40.85;;;19.10;77.60;;;;;;4987511;28;20035;-72
2021/09/17 09:40:07;;;;;;;49.58;40.15;;;19.10;76.90;;;;;;4979751;28;20054;-71
2021/09/17 09:42:44;;;;;;;48.70;38.83;;;19.20;76.90;;;;;;4987608;28;20093;-71
2021/09/17 09:45:13;;;;;;;48.88;40.97;;;19.20;77.00;;;;;;4986443;28;20040;-70
2021/09/17 09:47:41;;;;;;;52.95;42.30;;;19.00;76.90;;;;;;4981428;28;20478;-71
2021/09/17 09:50:24;;;;;;;48.30;39.55;;;19.00;77.50;;;;;;4980143;28;20085;-70
2021/09/17 09:53:00;;;;;;;55.47;43.63;;;19.40;77.10;;;;;;4984347;28;20034;-70
2021/09/17 09:55:26;;;;;;;55.03;42.58;;;19.70;75.30;;;;;;4985036;28;20040;-72
2021/09/17 09:57:55;;;;;;;53.90;44.05;;;19.90;74.60;;;;;;4986175;28;20042;-70
2021/09/17 10:00:21;;;;;;;52.10;42.67;;;19.90;74.80;;;;;;4977960;28;20045;-69
2021/09/17 10:02:47;;;;;;;52.60;42.38;;;20.10;74.90;;;;;;4981996;28;20038;-71
2021/09/17 10:05:15;;;;;;;45.40;39.58;;;20.10;75.20;;;;;;4980920;28;20069;-71
2021/09/17 10:07:41;;;;;;;50.67;42.65;;;20.30;73.30;;;;;;4979897;28;20066;-71
2021/09/17 10:10:10;;;;;;;49.83;41.97;;;20.30;74.60;;;;;;4984480;28;20034;-70
2021/09/17 10:12:37;;;;;;;47.78;40.72;;;20.50;73.60;;;;;;4981127;28;20042;-71
2021/09/17 10:15:04;;;;;;;50.88;41.97;;;20.70;72.40;;;;;;4983048;28;20049;-72
2021/09/17 10:17:32;;;;;;;45.30;39.95;;;21.00;72.00;;;;;;4978061;28;20103;-70
2021/09/17 10:20:00;;;;;;;42.95;36.83;;;21.10;71.30;;;;;;4983403;28;20458;-70
2021/09/17 10:22:25;;;;;;;46.20;40.33;;;21.20;71.10;;;;;;4985741;28;20081;-71
2021/09/17 10:25:07;;;;;;;44.05;38.92;;;21.60;69.70;;;;;;4979014;28;20305;-70
2021/09/17 10:27:34;;;;;;;40.50;35.55;;;21.60;69.60;;;;;;4983203;28;20113;-74
2021/09/17 10:30:03;;;;;;;45.92;39.47;;;21.80;68.40;;;;;;4981724;28;20548;-71
2021/09/17 10:32:43;;;;;;;46.45;41.00;;;22.00;68.00;;;;;;4985085;28;20042;-71
2021/09/17 10:35:11;;;;;;;42.75;37.15;;;22.10;66.60;;;;;;4983843;28;20073;-70
2021/09/17 10:38:02;;;;;;;47.50;39.05;;;22.10;66.80;;;;;;4983105;28;20038;-70
2021/09/17 10:40:56;;;;;;;43.55;38.30;;;22.10;66.70;;;;;;4984337;28;20125;-72
2021/09/17 10:43:43;;;;;;;45.03;38.28;;;22.00;66.60;;;;;;4986291;28;20042;-74
2021/09/17 10:46:32;;;;;;;43.10;35.67;;;21.90;66.40;;;;;;4977398;28;20454;-74
2021/09/17 10:49:00;;;;;;;44.20;35.85;;;21.90;67.40;;;;;;4982673;28;20046;-73
2021/09/17 10:51:38;;;;;;;41.83;34.47;;;21.80;67.50;;;;;;4980117;28;20540;-72
2021/09/17 10:54:07;;;;;;;43.65;34.38;;;21.80;67.50;;;;;;4980112;28;20596;-74
2021/09/17 10:56:48;;;;;;;39.67;33.45;;;22.10;66.00;;;;;;4983385;28;20116;-75
2021/09/17 10:59:29;;;;;;;44.50;33.72;;;22.10;64.40;;;;;;4982965;28;20042;-73
2021/09/17 11:02:00;;;;;;;41.10;34.55;;;22.30;65.40;;;;;;4977705;28;20065;-73
2021/09/17 11:04:44;;;;;;;40.63;33.58;;;22.20;65.80;;;;;;4983092;28;20030;-71
2021/09/17 11:07:19;;;;;;;39.78;34.47;;;22.10;65.70;;;;;;4984720;28;20046;-75
2021/09/17 11:10:05;;;;;;;41.67;34.90;;;21.90;67.10;;;;;;4985995;28;20537;-71
2021/09/17 11:12:38;;;;;;;42.72;34.65;;;21.60;67.60;;;;;;4984359;28;20034;-71
2021/09/17 11:15:18;;;;;;;39.28;31.50;;;21.50;67.90;;;;;;4978623;28;20215;-73
2021/09/17 11:17:52;;;;;;;39.92;33.63;;;21.60;67.10;;;;;;4981543;28;20521;-72
2021/09/17 11:20:24;;;;;;;41.60;32.10;;;21.70;65.90;;;;;;4985815;28;20038;-71
2021/09/17 11:23:00;;;;;;;35.25;31.05;;;21.60;66.00;;;;;;4980079;28;20027;-76
2021/09/17 11:25:29;;;;;;;36.88;31.05;;;21.70;67.30;;;;;;4982153;28;20571;-71
2021/09/17 11:27:55;;;;;;;37.13;30.67;;;22.10;65.90;;;;;;4983477;28;20047;-71
2021/09/17 11:30:26;;;;;;;35.95;30.52;;;22.30;64.10;;;;;;4985076;28;20043;-71
2021/09/17 11:32:52;;;;;;;36.10;30.23;;;22.40;63.60;;;;;;4985053;28;20466;-72
2021/09/17 11:35:19;;;;;;;35.83;29.00;;;22.40;63.60;;;;;;4976847;28;20454;-72
2021/09/17 11:38:02;;;;;;;31.48;27.90;;;22.00;63.70;;;;;;4979409;28;20421;-73
2021/09/17 11:40:28;;;;;;;34.13;29.35;;;21.70;65.30;;;;;;4981303;28;20035;-71
2021/09/17 11:42:56;;;;;;;36.40;31.30;;;21.60;65.80;;;;;;4982219;28;20046;-71
2021/09/17 11:45:24;;;;;;;35.42;30.23;;;21.40;66.30;;;;;;4983974;28;20049;-74
2021/09/17 11:47:53;;;;;;;31.60;27.20;;;21.50;65.70;;;;;;4991498;28;20054;-71
2021/09/17 11:50:24;;;;;;;32.38;27.98;;;21.70;66.00;;;;;;4984126;28;20394;-71
2021/09/17 11:52:52;;;;;;;37.55;28.80;;;21.80;66.10;;;;;;4987983;28;20038;-71
2021/09/17 11:55:25;;;;;;;34.90;28.50;;;21.80;65.00;;;;;;4980265;28;20054;-71
2021/09/17 11:57:54;;;;;;;33.88;28.70;;;21.90;64.00;;;;;;4984760;28;20034;-71
2021/09/17 12:00:22;;;;;;;32.78;27.33;;;22.10;64.70;;;;;;4983101;28;20341;-71
2021/09/17 12:03:02;;;;;;;33.22;27.42;;;22.20;63.80;;;;;;4985054;28;20061;-71
2021/09/17 12:05:31;;;;;;;28.67;25.02;;;22.50;63.30;;;;;;4985244;28;20034;-71
2021/09/17 12:07:57;;;;;;;29.80;24.90;;;22.80;62.00;;;;;;4983700;28;20030;-71
2021/09/17 12:10:34;;;;;;;28.42;23.73;;;22.80;62.50;;;;;;4983848;28;20073;-72
2021/09/17 12:13:08;;;;;;;31.70;26.52;;;23.00;62.70;;;;;;4986145;28;20462;-72
2021/09/17 12:15:38;;;;;;;34.38;27.25;;;23.00;62.50;;;;;;4988513;28;20034;-73
2021/09/17 12:18:17;;;;;;;30.85;25.67;;;22.90;62.80;;;;;;4987209;28;20386;-74
2021/09/17 12:20:54;;;;;;;34.50;26.90;;;23.10;60.90;;;;;;4988043;28;20042;-70
2021/09/17 12:23:40;;;;;;;26.15;21.00;;;23.20;60.30;;;;;;4986893;28;20111;-72
2021/09/17 12:26:11;;;;;;;22.60;18.27;;;23.50;59.10;;;;;;4979486;28;20092;-71
2021/09/17 12:28:37;;;;;;;24.48;18.35;;;23.50;57.60;;;;;;4986945;28;20136;-71
2021/09/17 12:31:04;;;;;;;26.55;23.00;;;23.70;57.10;;;;;;4982742;28;20038;-71